Time;durP1;ratioP1;P1;durP2;ratioP2;P2;SDS_P1;SDS_P2;PMS_P1;PMS_P2;Temp;Humidity;BMP_temperature;BMP_pressure;BME280_temperature;BME280_humidity;BME280_pressure;Samples;Min_cycle;Max_cycle;Signal;HPM_P1;HPM_P2
2021/12/17 00:00:43;;;;;;;25.63;12.60;;;4.00;99.90;;;;;;5054111;28;20542;-69
2021/12/17 00:03:18;;;;;;;20.52;11.32;;;4.00;99.90;;;;;;5054493;28;20028;-68
2021/12/17 00:08:16;;;;;;;25.67;13.77;;;4.10;99.90;;;;;;5072036;28;20029;-68
2021/12/17 00:10:44;;;;;;;25.52;13.52;;;4.10;99.90;;;;;;5054851;28;20447;-69
2021/12/17 00:13:12;;;;;;;21.10;12.00;;;4.10;99.90;;;;;;5071426;28;20028;-67
2021/12/17 00:15:39;;;;;;;21.90;11.88;;;4.20;99.90;;;;;;5054046;28;20041;-68
2021/12/17 00:18:16;;;;;;;23.65;12.13;;;4.20;99.90;;;;;;5053803;28;20472;-67
2021/12/17 00:43:49;;;;;;;25.60;12.05;;;4.00;99.90;;;;;;5060463;28;20036;-68
2021/12/17 00:48:37;;;;;;;24.13;11.57;;;4.00;99.90;;;;;;5071011;28;20150;-68
2021/12/17 00:53:56;;;;;;;23.02;12.05;;;4.10;99.90;;;;;;5079356;28;20031;-68
2021/12/17 00:56:22;;;;;;;25.02;12.05;;;4.20;99.90;;;;;;5054865;28;20032;-68
2021/12/17 00:58:48;;;;;;;25.20;12.40;;;4.20;99.90;;;;;;5053058;28;20048;-68
2021/12/17 01:01:15;;;;;;;25.23;13.10;;;4.20;99.90;;;;;;5070207;28;20526;-68
2021/12/17 01:03:41;;;;;;;25.65;12.65;;;4.20;99.90;;;;;;5062293;28;20166;-68
2021/12/17 01:06:07;;;;;;;28.05;12.55;;;4.20;99.90;;;;;;5046906;28;20108;-68
2021/12/17 01:08:33;;;;;;;26.90;12.57;;;4.20;99.90;;;;;;5049258;28;20436;-68
2021/12/17 01:10:59;;;;;;;23.30;12.65;;;4.20;99.90;;;;;;5052782;28;20050;-68
2021/12/17 01:13:27;;;;;;;24.90;12.27;;;4.20;99.90;;;;;;5053145;28;20071;-68
2021/12/17 01:15:53;;;;;;;24.63;11.73;;;4.20;99.90;;;;;;5052994;28;20028;-68
2021/12/17 01:18:21;;;;;;;24.77;12.10;;;4.20;99.90;;;;;;5070404;28;20036;-67
2021/12/17 01:24:07;;;;;;;23.77;11.95;;;4.20;99.90;;;;;;5012107;28;20080;-67
2021/12/17 01:37:11;;;;;;;26.15;12.45;;;4.20;99.90;;;;;;5010461;28;20036;-69
2021/12/17 01:40:42;;;;;;;26.30;12.93;;;4.20;99.90;;;;;;5010605;28;20080;-66
2021/12/17 01:42:32;;;;;;;27.88;13.07;;;4.30;99.90;;;;;;5009727;28;20034;-70
2021/12/17 01:44:57;;;;;;;30.15;13.60;;;4.30;99.90;;;;;;5023909;28;20049;-68
2021/12/17 01:47:23;;;;;;;23.23;11.98;;;4.30;99.90;;;;;;5009784;28;20394;-68
2021/12/17 02:00:40;;;;;;;31.23;14.20;;;4.40;99.90;;;;;;5011876;28;20033;-68
2021/12/17 02:03:06;;;;;;;32.25;14.43;;;4.40;99.90;;;;;;5016959;28;20022;-69
2021/12/17 02:05:34;;;;;;;24.88;12.95;;;4.50;99.90;;;;;;5024484;28;20069;-69
2021/12/17 02:08:00;;;;;;;25.13;13.07;;;4.50;99.90;;;;;;5014799;28;20046;-69
2021/12/17 02:31:54;;;;;;;24.98;12.98;;;4.70;99.90;;;;;;5017199;28;20182;-69
2021/12/17 02:37:09;;;;;;;24.05;12.43;;;4.60;99.90;;;;;;5013620;28;20044;-69
2021/12/17 02:40:02;;;;;;;24.77;12.15;;;4.60;99.90;;;;;;5013281;28;20022;-69
2021/12/17 02:48:10;;;;;;;22.90;11.38;;;4.60;99.90;;;;;;5010980;28;20092;-70
2021/12/17 02:50:44;;;;;;;24.85;11.75;;;4.60;99.90;;;;;;5011497;28;20024;-70
2021/12/17 02:53:10;;;;;;;24.95;11.85;;;4.60;99.90;;;;;;5022816;28;20604;-69
2021/12/17 02:55:42;;;;;;;23.42;12.10;;;4.60;99.90;;;;;;5018963;28;20114;-69
2021/12/17 02:58:08;;;;;;;27.20;12.63;;;4.70;99.90;;;;;;5025808;28;20634;-69
2021/12/17 03:00:36;;;;;;;20.95;11.48;;;4.70;99.90;;;;;;5024664;28;20084;-69
2021/12/17 03:03:03;;;;;;;24.25;12.05;;;4.70;99.90;;;;;;5029500;28;20033;-69
2021/12/17 03:05:29;;;;;;;23.23;11.85;;;4.70;99.90;;;;;;5028583;28;20019;-69
2021/12/17 03:07:56;;;;;;;26.08;12.38;;;4.80;99.90;;;;;;5009524;28;20395;-69
2021/12/17 03:10:23;;;;;;;26.20;11.80;;;4.80;99.90;;;;;;5029350;28;20033;-69
2021/12/17 03:12:53;;;;;;;22.20;11.15;;;4.80;99.90;;;;;;5028646;28;20112;-69
2021/12/17 03:25:55;;;;;;;26.88;12.63;;;4.90;99.90;;;;;;5014181;28;20014;-69
2021/12/17 03:28:21;;;;;;;27.77;12.40;;;4.90;99.90;;;;;;5023963;28;20030;-69
2021/12/17 03:30:47;;;;;;;25.35;12.60;;;4.90;99.90;;;;;;5024844;28;20473;-69
2021/12/17 03:33:13;;;;;;;26.35;12.95;;;4.90;99.90;;;;;;5025964;28;20105;-69
2021/12/17 03:35:39;;;;;;;26.73;12.95;;;5.00;99.90;;;;;;5025914;28;20080;-69
2021/12/17 03:38:06;;;;;;;28.58;13.35;;;5.00;99.90;;;;;;5022890;28;20113;-69
2021/12/17 03:40:33;;;;;;;28.30;13.80;;;5.00;99.90;;;;;;5026969;28;20125;-69
2021/12/17 03:43:11;;;;;;;28.50;12.90;;;5.00;99.90;;;;;;5029164;28;20060;-70
2021/12/17 03:45:37;;;;;;;32.72;13.98;;;5.00;99.90;;;;;;5015746;28;20034;-69
2021/12/17 03:48:03;;;;;;;27.15;14.13;;;5.00;99.90;;;;;;5027391;28;20065;-69
2021/12/17 03:50:33;;;;;;;29.40;14.68;;;5.10;99.90;;;;;;5011142;28;20051;-69
2021/12/17 03:52:58;;;;;;;26.63;13.25;;;5.00;99.90;;;;;;5026966;28;20124;-69
2021/12/17 03:55:24;;;;;;;31.45;14.13;;;5.10;99.90;;;;;;5030107;28;20125;-69
2021/12/17 03:57:50;;;;;;;27.52;13.15;;;5.10;99.90;;;;;;5009159;28;20109;-69
2021/12/17 04:00:15;;;;;;;29.95;13.05;;;5.10;99.90;;;;;;5007049;28;20575;-69
2021/12/17 04:02:41;;;;;;;26.52;13.25;;;5.10;99.90;;;;;;5026476;28;20044;-69
2021/12/17 04:05:07;;;;;;;30.80;14.40;;;5.10;99.90;;;;;;5027949;28;20032;-69
2021/12/17 04:07:33;;;;;;;25.23;12.75;;;5.10;99.90;;;;;;5010673;28;20128;-69
2021/12/17 04:09:58;;;;;;;26.05;12.20;;;5.10;99.90;;;;;;5010978;28;20050;-69
2021/12/17 04:12:38;;;;;;;28.05;13.23;;;5.10;99.90;;;;;;5013584;28;20378;-69
2021/12/17 04:15:05;;;;;;;26.45;13.15;;;5.10;99.90;;;;;;5012000;28;20099;-69
2021/12/17 04:17:40;;;;;;;30.67;13.43;;;5.10;99.90;;;;;;5010673;28;20412;-69
2021/12/17 04:20:06;;;;;;;30.42;14.13;;;5.10;99.90;;;;;;5015976;28;20485;-69
2021/12/17 04:22:32;;;;;;;26.55;13.25;;;5.10;99.90;;;;;;5021319;28;20038;-69
2021/12/17 04:24:57;;;;;;;29.27;13.55;;;5.10;99.90;;;;;;5027590;28;20542;-69
2021/12/17 04:27:23;;;;;;;30.05;13.50;;;5.10;99.90;;;;;;5010888;28;20018;-69
2021/12/17 04:29:49;;;;;;;30.15;13.82;;;5.10;99.90;;;;;;5022555;28;20025;-69
2021/12/17 04:32:14;;;;;;;25.63;13.13;;;5.00;99.90;;;;;;5012124;28;20076;-69
2021/12/17 04:34:40;;;;;;;28.77;12.38;;;5.00;99.90;;;;;;5016721;28;20110;-69
2021/12/17 04:37:05;;;;;;;29.10;12.85;;;5.00;99.90;;;;;;5011934;28;20034;-69
2021/12/17 04:39:31;;;;;;;27.45;12.63;;;4.90;99.90;;;;;;5012356;28;20037;-69
2021/12/17 04:42:08;;;;;;;24.45;11.80;;;4.80;99.90;;;;;;5009228;28;20474;-69
2021/12/17 04:44:37;;;;;;;22.92;11.30;;;4.80;99.90;;;;;;5009979;28;20030;-69
2021/12/17 04:57:42;;;;;;;32.75;12.18;;;4.60;99.90;;;;;;5010364;28;20044;-70
2021/12/17 05:00:28;;;;;;;31.40;12.05;;;4.50;99.90;;;;;;5011297;28;20429;-70
2021/12/17 05:02:57;;;;;;;29.48;11.82;;;4.40;99.90;;;;;;5021381;28;20508;-69
2021/12/17 05:05:28;;;;;;;25.35;11.05;;;4.40;99.90;;;;;;5022321;28;20496;-69
2021/12/17 05:08:00;;;;;;;24.73;12.18;;;4.30;99.90;;;;;;5005416;28;20026;-69
2021/12/17 05:10:46;;;;;;;28.15;12.10;;;4.30;99.90;;;;;;5010389;28;20022;-69
2021/12/17 05:19:01;;;;;;;25.42;11.63;;;4.10;99.90;;;;;;5010037;28;20072;-69
2021/12/17 05:21:27;;;;;;;23.67;10.43;;;4.10;99.90;;;;;;5008494;28;20026;-69
2021/12/17 05:23:52;;;;;;;24.40;11.68;;;4.00;99.90;;;;;;5009616;28;20033;-69
2021/12/17 05:26:20;;;;;;;25.02;12.45;;;3.90;99.90;;;;;;5010338;28;20034;-69
2021/12/17 05:28:48;;;;;;;23.35;11.57;;;3.80;99.90;;;;;;5005749;28;20109;-69
2021/12/17 05:31:21;;;;;;;18.88;10.23;;;3.80;99.90;;;;;;5002299;28;20018;-70
2021/12/17 05:33:48;;;;;;;23.83;11.55;;;3.70;99.90;;;;;;5010608;28;20371;-69
2021/12/17 05:36:14;;;;;;;21.75;10.48;;;3.70;99.90;;;;;;5010703;28;20421;-69
2021/12/17 05:38:39;;;;;;;30.67;8.95;;;3.60;99.90;;;;;;5014638;28;20140;-69
2021/12/17 05:41:05;;;;;;;17.05;8.82;;;3.60;99.90;;;;;;5026860;28;20034;-69
2021/12/17 05:43:36;;;;;;;27.48;8.68;;;3.50;99.90;;;;;;5025854;28;20064;-69
2021/12/17 05:46:08;;;;;;;28.85;8.48;;;3.40;99.90;;;;;;5004967;28;20492;-71
2021/12/17 05:48:35;;;;;;;19.40;8.98;;;3.40;99.90;;;;;;5005899;28;20495;-71
2021/12/17 05:51:04;;;;;;;17.10;8.60;;;3.30;99.90;;;;;;5009262;28;20018;-70
2021/12/17 05:53:29;;;;;;;17.20;8.80;;;3.30;99.90;;;;;;5024366;28;20030;-70
2021/12/17 05:55:56;;;;;;;20.90;9.93;;;3.30;99.90;;;;;;5023758;28;20034;-71
2021/12/17 05:58:22;;;;;;;19.83;9.25;;;3.30;99.90;;;;;;5004680;28;20034;-71
2021/12/17 06:00:48;;;;;;;18.50;8.95;;;3.30;99.90;;;;;;5006973;28;20022;-71
2021/12/17 06:03:14;;;;;;;32.00;8.18;;;3.30;99.90;;;;;;5026306;28;20105;-71
2021/12/17 06:05:40;;;;;;;35.45;7.88;;;3.30;99.90;;;;;;5006406;28;20082;-71
2021/12/17 06:08:06;;;;;;;25.83;7.55;;;3.20;99.90;;;;;;5014206;28;20129;-71
2021/12/17 06:10:32;;;;;;;19.15;7.47;;;3.10;99.90;;;;;;5001198;28;20109;-70
2021/12/17 06:12:59;;;;;;;17.15;7.00;;;3.10;99.90;;;;;;5025718;28;20026;-70
2021/12/17 06:15:25;;;;;;;12.30;5.88;;;3.10;99.90;;;;;;5012263;28;20033;-71
2021/12/17 06:17:52;;;;;;;15.68;6.28;;;3.00;99.90;;;;;;5014163;28;20034;-70
2021/12/17 06:20:19;;;;;;;14.60;6.00;;;3.00;99.90;;;;;;5005743;28;20116;-70
2021/12/17 06:22:46;;;;;;;25.65;6.70;;;2.90;99.90;;;;;;5023903;28;20057;-70
2021/12/17 06:25:13;;;;;;;18.48;6.32;;;2.90;99.90;;;;;;5007955;28;20034;-70
2021/12/17 06:27:39;;;;;;;10.77;5.95;;;2.80;99.90;;;;;;5025515;28;20077;-71
2021/12/17 06:30:11;;;;;;;14.98;6.45;;;2.80;99.90;;;;;;5009680;28;20506;-70
2021/12/17 06:32:37;;;;;;;13.13;6.35;;;2.70;99.90;;;;;;5010946;28;20513;-70
2021/12/17 06:35:04;;;;;;;12.70;5.90;;;2.60;99.90;;;;;;5011261;28;20061;-69
2021/12/17 06:37:30;;;;;;;9.73;5.72;;;2.50;99.90;;;;;;5007919;28;20026;-69
2021/12/17 06:39:58;;;;;;;15.98;5.32;;;2.50;99.90;;;;;;5005546;28;20025;-70
2021/12/17 06:42:26;;;;;;;11.52;5.63;;;2.50;99.90;;;;;;5023109;28;20035;-70
2021/12/17 06:44:55;;;;;;;14.50;5.47;;;2.40;99.90;;;;;;5026152;28;20041;-70
2021/12/17 06:47:30;;;;;;;15.98;5.28;;;2.40;99.90;;;;;;5009357;28;20029;-69
2021/12/17 07:06:12;;;;;;;15.82;5.53;;;2.10;99.90;;;;;;5004847;28;20022;-70
2021/12/17 07:32:41;;;;;;;18.27;7.97;;;2.00;99.90;;;;;;5013101;28;20040;-70
2021/12/17 07:40:10;;;;;;;18.92;9.90;;;2.00;99.90;;;;;;5013850;28;20513;-70
2021/12/17 07:42:36;;;;;;;17.52;8.88;;;2.00;99.90;;;;;;5014640;28;20045;-70
2021/12/17 07:45:06;;;;;;;19.20;10.38;;;2.10;99.90;;;;;;5032182;28;20030;-69
2021/12/17 07:47:31;;;;;;;10.63;7.47;;;2.20;99.90;;;;;;5015133;28;20637;-70
2021/12/17 07:49:57;;;;;;;10.93;7.13;;;2.30;99.90;;;;;;5013658;28;20033;-70
2021/12/17 07:52:23;;;;;;;28.38;12.23;;;2.30;99.90;;;;;;5022607;28;20490;-69
2021/12/17 07:54:48;;;;;;;17.63;8.88;;;2.30;99.90;;;;;;5012610;28;20394;-70
2021/12/17 07:57:14;;;;;;;14.38;8.38;;;2.30;99.90;;;;;;5019077;28;20025;-69
2021/12/17 07:59:40;;;;;;;11.68;7.45;;;2.40;99.90;;;;;;5020286;28;20034;-69
2021/12/17 08:02:06;;;;;;;11.30;7.43;;;2.30;99.90;;;;;;5028554;28;20096;-69
2021/12/17 08:04:33;;;;;;;12.13;7.68;;;2.30;99.90;;;;;;5024325;28;20120;-69
2021/12/17 08:06:59;;;;;;;12.65;7.45;;;2.30;99.90;;;;;;5026301;28;20397;-69
2021/12/17 08:09:25;;;;;;;12.80;7.65;;;2.30;99.90;;;;;;5009445;28;20035;-69
2021/12/17 08:11:56;;;;;;;13.10;7.18;;;2.30;99.90;;;;;;5008984;28;20022;-69
2021/12/17 08:14:28;;;;;;;9.32;6.72;;;2.40;99.90;;;;;;5005483;28;20088;-69
2021/12/17 08:17:02;;;;;;;10.02;6.68;;;2.40;99.90;;;;;;5011834;28;20425;-69
2021/12/17 08:29:55;;;;;;;10.20;7.05;;;2.70;99.90;;;;;;5006785;28;20534;-69
2021/12/17 08:32:20;;;;;;;90.28;37.95;;;2.70;99.90;;;;;;5015411;28;20049;-69
2021/12/17 08:34:46;;;;;;;61.00;28.13;;;2.80;99.90;;;;;;4993673;28;20034;-69
2021/12/17 08:37:12;;;;;;;28.95;14.77;;;2.90;99.90;;;;;;5012724;28;20030;-68
2021/12/17 08:39:38;;;;;;;20.27;9.88;;;2.90;99.90;;;;;;5027642;28;20030;-69
2021/12/17 08:42:05;;;;;;;13.90;8.48;;;3.00;99.90;;;;;;5024691;28;20121;-69
2021/12/17 08:44:31;;;;;;;13.88;7.85;;;3.00;99.90;;;;;;5008806;28;20121;-68
2021/12/17 08:46:57;;;;;;;15.73;8.38;;;3.00;99.90;;;;;;5020961;28;20121;-69
2021/12/17 08:49:23;;;;;;;15.57;8.00;;;3.00;99.90;;;;;;5011937;28;20042;-68
2021/12/17 08:51:49;;;;;;;12.50;7.53;;;3.00;99.90;;;;;;5010281;28;20064;-69
2021/12/17 08:54:15;;;;;;;12.32;6.82;;;3.00;99.90;;;;;;5011249;28;20116;-68
2021/12/17 08:56:47;;;;;;;15.20;7.40;;;3.00;99.90;;;;;;5010019;28;20437;-69
2021/12/17 08:59:16;;;;;;;17.95;7.03;;;3.00;99.90;;;;;;5001639;28;20022;-68
2021/12/17 09:01:43;;;;;;;14.98;7.40;;;3.00;99.90;;;;;;5033835;28;20033;-69
2021/12/17 09:04:09;;;;;;;20.10;6.82;;;2.90;99.90;;;;;;5010907;28;20060;-70
2021/12/17 09:09:00;;;;;;;22.83;6.72;;;2.90;99.90;;;;;;5119567;22;20084;-70
2021/12/17 09:11:28;;;;;;;21.67;5.40;;;2.90;99.90;;;;;;5043309;28;20021;-67
2021/12/17 09:13:56;;;;;;;11.52;6.05;;;2.80;99.90;;;;;;5051154;28;20024;-67
2021/12/17 09:16:23;;;;;;;12.43;4.97;;;2.90;99.90;;;;;;5051090;28;20029;-70
2021/12/17 09:18:49;;;;;;;17.55;4.72;;;2.90;99.90;;;;;;5050030;28;20033;-69
2021/12/17 09:21:16;;;;;;;31.02;5.07;;;2.90;99.90;;;;;;5050777;28;20036;-67
2021/12/17 09:23:42;;;;;;;29.45;5.28;;;2.90;99.90;;;;;;5052026;28;20082;-66
2021/12/17 09:26:10;;;;;;;19.88;6.00;;;2.90;99.90;;;;;;5050689;28;20025;-67
2021/12/17 09:28:35;;;;;;;27.70;5.53;;;2.90;99.90;;;;;;5050247;28;20480;-67
2021/12/17 09:31:01;;;;;;;20.83;5.57;;;2.90;99.90;;;;;;5050460;28;20036;-67
2021/12/17 09:33:27;;;;;;;22.90;5.65;;;2.80;99.90;;;;;;5050735;28;20120;-68
2021/12/17 09:35:53;;;;;;;21.88;6.13;;;2.80;99.90;;;;;;5050094;28;20114;-68
2021/12/17 09:38:19;;;;;;;11.52;5.20;;;2.80;99.90;;;;;;5044135;28;20022;-70
2021/12/17 09:40:45;;;;;;;13.60;5.35;;;2.80;99.90;;;;;;5064724;28;20025;-67
2021/12/17 09:43:14;;;;;;;13.20;5.35;;;2.80;99.90;;;;;;5051964;28;20138;-67
2021/12/17 09:45:40;;;;;;;19.67;5.07;;;2.90;99.90;;;;;;5050582;28;20027;-68
2021/12/17 09:48:05;;;;;;;11.60;5.00;;;3.00;99.90;;;;;;5054312;28;20124;-67
2021/12/17 09:50:31;;;;;;;8.93;5.10;;;3.00;99.90;;;;;;5047487;28;20120;-69
2021/12/17 09:52:57;;;;;;;10.13;5.25;;;3.10;99.90;;;;;;5030533;28;20057;-67
2021/12/17 09:55:23;;;;;;;10.23;5.90;;;3.10;99.90;;;;;;5030629;28;20650;-68
2021/12/17 09:57:49;;;;;;;6.65;5.55;;;3.20;99.90;;;;;;5044722;28;20025;-67
2021/12/17 10:00:21;;;;;;;9.57;6.18;;;3.30;99.90;;;;;;5050585;28;20455;-67
2021/12/17 10:02:49;;;;;;;10.88;6.28;;;3.40;99.90;;;;;;5050251;28;20083;-67
2021/12/17 10:05:24;;;;;;;9.98;5.97;;;3.40;99.90;;;;;;5050441;28;20017;-67
2021/12/17 10:07:56;;;;;;;9.20;6.68;;;3.40;99.90;;;;;;5049294;28;20052;-67
2021/12/17 10:10:32;;;;;;;11.00;6.95;;;3.50;99.90;;;;;;5044516;28;20028;-70
2021/12/17 10:13:13;;;;;;;11.65;7.60;;;3.60;99.90;;;;;;5050193;28;20035;-70
2021/12/17 10:15:42;;;;;;;11.65;7.28;;;3.70;99.90;;;;;;5050139;28;20063;-68
2021/12/17 10:18:08;;;;;;;10.30;6.50;;;3.70;99.90;;;;;;5049269;28;20037;-70
2021/12/17 10:20:53;;;;;;;16.83;8.25;;;3.90;99.90;;;;;;5066767;28;20029;-67
2021/12/17 10:23:21;;;;;;;15.63;9.52;;;3.90;99.90;;;;;;5066379;28;20075;-68
2021/12/17 10:25:47;;;;;;;14.93;8.10;;;3.90;99.90;;;;;;5036449;28;20017;-67
2021/12/17 10:28:14;;;;;;;13.85;8.82;;;4.00;99.90;;;;;;5048561;28;20109;-67
2021/12/17 10:30:42;;;;;;;13.23;8.55;;;4.00;99.90;;;;;;5049385;28;20870;-66
2021/12/17 10:33:15;;;;;;;15.55;9.40;;;4.10;99.90;;;;;;5049303;28;20033;-68
2021/12/17 10:35:45;;;;;;;13.02;8.55;;;4.20;99.90;;;;;;5049289;28;20029;-67
2021/12/17 10:38:15;;;;;;;15.70;10.05;;;4.30;99.90;;;;;;5044168;28;20037;-68
2021/12/17 10:40:49;;;;;;;14.80;9.48;;;4.40;99.90;;;;;;5062764;28;20033;-67
2021/12/17 10:51:19;;;;;;;18.88;10.05;;;4.90;99.90;;;;;;5063757;28;20032;-69
2021/12/17 10:53:56;;;;;;;22.48;12.07;;;5.00;99.90;;;;;;5053653;28;20029;-67
2021/12/17 10:56:36;;;;;;;14.20;9.30;;;5.10;99.90;;;;;;5053057;28;20029;-67
2021/12/17 10:59:04;;;;;;;15.73;9.52;;;5.20;99.90;;;;;;5052624;28;20028;-67
2021/12/17 11:01:31;;;;;;;16.67;9.48;;;5.20;99.90;;;;;;5052391;28;20492;-68
2021/12/17 11:04:23;;;;;;;14.60;9.35;;;5.30;99.90;;;;;;5052824;28;20052;-69
2021/12/17 11:07:10;;;;;;;15.73;10.05;;;5.30;99.90;;;;;;5053485;28;20028;-67
2021/12/17 11:09:37;;;;;;;17.83;9.40;;;5.40;99.90;;;;;;5036055;28;20043;-68
2021/12/17 11:12:34;;;;;;;16.08;10.27;;;5.30;99.90;;;;;;5052429;28;20517;-69
2021/12/17 11:15:18;;;;;;;16.83;11.38;;;5.40;99.90;;;;;;5053372;28;20032;-67
2021/12/17 11:17:56;;;;;;;15.55;9.93;;;5.40;99.90;;;;;;5051338;28;20045;-68
2021/12/17 11:20:31;;;;;;;17.73;10.70;;;5.40;99.90;;;;;;5047298;28;20025;-71
2021/12/17 11:23:05;;;;;;;15.02;9.65;;;5.40;99.90;;;;;;5052886;28;20082;-67
2021/12/17 11:25:32;;;;;;;18.08;10.88;;;5.50;99.90;;;;;;5053312;28;20484;-67
2021/12/17 11:27:59;;;;;;;23.50;14.18;;;5.50;99.90;;;;;;5048438;28;20055;-68
2021/12/17 11:30:27;;;;;;;20.90;11.93;;;5.60;99.90;;;;;;5041304;28;20440;-67
2021/12/17 11:32:54;;;;;;;21.25;12.10;;;5.50;99.90;;;;;;5033012;28;20033;-67
2021/12/17 11:35:23;;;;;;;15.32;10.32;;;5.50;99.90;;;;;;5033050;28;20028;-67
2021/12/17 11:37:51;;;;;;;15.70;10.45;;;5.60;99.90;;;;;;5047061;28;20025;-67
2021/12/17 11:40:25;;;;;;;15.70;10.73;;;5.70;99.90;;;;;;5040914;28;20477;-67
2021/12/17 11:43:05;;;;;;;24.60;13.15;;;5.70;99.90;;;;;;5048408;28;20029;-67
2021/12/17 11:45:31;;;;;;;18.95;12.60;;;5.70;99.90;;;;;;5052690;28;20480;-67
2021/12/17 11:48:18;;;;;;;20.80;12.93;;;5.80;99.90;;;;;;5062663;28;20396;-67
2021/12/17 11:50:47;;;;;;;77.25;44.38;;;5.80;99.90;;;;;;5053912;28;20417;-67
2021/12/17 11:53:22;;;;;;;19.67;13.35;;;5.90;99.90;;;;;;5047906;28;20177;-67
2021/12/17 11:55:59;;;;;;;17.58;11.93;;;6.00;99.90;;;;;;5042082;28;20477;-70
2021/12/17 11:58:45;;;;;;;16.85;10.55;;;6.00;99.90;;;;;;5031439;28;20029;-69
2021/12/17 12:01:11;;;;;;;15.20;9.75;;;6.00;99.90;;;;;;5045261;28;20025;-68
2021/12/17 12:03:37;;;;;;;13.00;9.18;;;6.10;99.90;;;;;;5077195;28;20031;-68
2021/12/17 12:06:02;;;;;;;13.90;9.23;;;6.10;99.90;;;;;;5060495;28;20021;-68
2021/12/17 12:08:47;;;;;;;13.00;10.02;;;6.10;99.90;;;;;;5044270;28;20083;-67
2021/12/17 12:11:27;;;;;;;14.63;10.20;;;6.10;99.90;;;;;;5062266;28;20035;-68
2021/12/17 12:13:55;;;;;;;17.80;10.38;;;6.20;99.90;;;;;;5052051;28;20183;-67
2021/12/17 12:16:24;;;;;;;15.65;9.65;;;6.20;99.90;;;;;;5052455;28;20085;-68
2021/12/17 12:18:57;;;;;;;12.75;9.65;;;6.30;99.90;;;;;;5050458;28;20033;-68
2021/12/17 12:21:33;;;;;;;11.63;8.55;;;6.20;99.90;;;;;;5050484;28;20095;-69
2021/12/17 12:24:04;;;;;;;12.73;9.10;;;6.20;99.90;;;;;;5037821;28;20078;-68
2021/12/17 12:26:45;;;;;;;11.65;8.90;;;6.20;99.90;;;;;;5051738;28;20029;-67
2021/12/17 12:29:23;;;;;;;13.27;9.48;;;6.20;99.90;;;;;;5051305;28;20079;-68
2021/12/17 12:32:11;;;;;;;14.23;9.70;;;6.20;99.90;;;;;;5051210;28;20120;-67
2021/12/17 12:34:39;;;;;;;16.27;9.98;;;6.20;99.90;;;;;;5052012;28;20489;-67
2021/12/17 12:37:08;;;;;;;16.92;10.40;;;6.30;99.90;;;;;;5049261;28;20546;-68
2021/12/17 12:39:41;;;;;;;15.65;10.80;;;6.30;99.90;;;;;;5048994;28;20047;-68
2021/12/17 12:42:11;;;;;;;;;;;6.30;99.90;;;;;;5033760;28;20029;-68
2021/12/17 12:44:43;;;;;;;15.93;10.55;;;6.30;99.90;;;;;;5049447;28;19908;-68
2021/12/17 12:47:10;;;;;;;10.50;7.45;;;6.30;99.90;;;;;;5052606;28;20020;-69
2021/12/17 12:49:51;;;;;;;16.55;11.00;;;6.30;99.90;;;;;;5036583;28;20067;-70
2021/12/17 12:52:28;;;;;;;16.85;11.55;;;6.30;99.90;;;;;;5049016;28;20028;-69
2021/12/17 12:55:00;;;;;;;16.88;10.98;;;6.30;99.90;;;;;;5048827;28;20028;-68
2021/12/17 12:57:37;;;;;;;14.93;10.18;;;6.30;99.90;;;;;;5048473;28;20104;-67
2021/12/17 13:00:41;;;;;;;15.52;10.40;;;6.30;99.90;;;;;;5050360;28;20139;-69
2021/12/17 13:03:17;;;;;;;13.18;9.85;;;6.30;99.90;;;;;;5011675;28;20037;-68
2021/12/17 13:05:45;;;;;;;16.42;10.13;;;6.30;99.90;;;;;;5049373;28;20485;-69
2021/12/17 13:08:14;;;;;;;13.02;9.07;;;6.30;99.90;;;;;;5055005;28;20114;-67
2021/12/17 13:10:44;;;;;;;15.43;10.20;;;6.30;99.90;;;;;;5042540;28;20025;-68
2021/12/17 13:16:02;;;;;;;15.32;10.35;;;6.30;99.90;;;;;;5050249;28;20767;-69
2021/12/17 13:26:38;;;;;;;10.55;7.82;;;6.30;99.90;;;;;;5050330;28;20033;-69
2021/12/17 13:29:35;;;;;;;13.50;9.40;;;6.30;99.90;;;;;;5047838;28;20029;-68
2021/12/17 13:32:11;;;;;;;14.43;9.38;;;6.30;99.90;;;;;;5047881;28;20041;-68
2021/12/17 13:34:43;;;;;;;13.80;10.05;;;6.30;99.90;;;;;;5049462;28;20481;-69
2021/12/17 13:37:11;;;;;;;13.60;9.73;;;6.20;99.90;;;;;;5034167;28;20037;-67
2021/12/17 13:39:59;;;;;;;14.52;10.48;;;6.20;99.90;;;;;;5039362;28;20446;-70
2021/12/17 13:42:27;;;;;;;15.02;10.18;;;6.20;99.90;;;;;;5030776;28;20437;-71
2021/12/17 13:44:56;;;;;;;14.02;9.90;;;6.30;99.90;;;;;;5048496;28;20032;-68
2021/12/17 13:47:32;;;;;;;13.45;9.25;;;6.20;99.90;;;;;;5047666;28;20028;-70
2021/12/17 13:50:06;;;;;;;13.52;9.40;;;6.20;99.90;;;;;;5055608;28;20020;-70
2021/12/17 13:52:35;;;;;;;15.77;10.10;;;6.20;99.90;;;;;;5047846;28;20105;-68
2021/12/17 13:55:05;;;;;;;14.38;10.55;;;6.10;99.90;;;;;;5047852;28;20040;-68
2021/12/17 13:57:32;;;;;;;16.92;10.43;;;6.10;99.90;;;;;;5047088;28;20025;-68
2021/12/17 14:00:36;;;;;;;15.35;10.27;;;6.10;99.90;;;;;;5047552;28;20064;-70
2021/12/17 14:03:03;;;;;;;15.73;10.43;;;6.10;99.90;;;;;;5050089;28;20489;-70
2021/12/17 14:05:40;;;;;;;15.70;10.93;;;6.00;99.90;;;;;;5052280;28;20447;-68
2021/12/17 14:08:09;;;;;;;13.88;9.85;;;6.00;99.90;;;;;;5049533;28;20496;-72
2021/12/17 14:10:37;;;;;;;15.30;9.75;;;6.00;99.90;;;;;;5058630;28;20052;-69
2021/12/17 14:13:05;;;;;;;18.08;11.27;;;6.00;99.90;;;;;;5057968;28;20050;-69
2021/12/17 14:15:33;;;;;;;16.70;10.98;;;5.90;99.90;;;;;;5046446;28;20033;-69
2021/12/17 14:18:02;;;;;;;16.58;11.02;;;5.90;99.90;;;;;;5044745;28;20784;-69
2021/12/17 14:20:41;;;;;;;15.18;10.02;;;5.90;99.90;;;;;;5046899;28;20507;-69
2021/12/17 14:23:18;;;;;;;14.35;10.27;;;5.90;99.90;;;;;;5050353;28;20088;-69
2021/12/17 14:25:58;;;;;;;15.32;10.25;;;5.80;99.90;;;;;;5050836;28;20029;-70
2021/12/17 14:28:30;;;;;;;14.13;10.18;;;5.80;99.90;;;;;;5049409;28;20025;-68
2021/12/17 14:31:09;;;;;;;16.08;10.75;;;5.80;99.90;;;;;;5050043;28;20029;-68
2021/12/17 14:33:40;;;;;;;15.00;10.48;;;5.70;99.90;;;;;;5050490;28;20105;-68
2021/12/17 14:36:14;;;;;;;17.08;11.32;;;5.70;99.90;;;;;;5041663;28;20108;-68
2021/12/17 14:38:45;;;;;;;17.13;10.95;;;5.70;99.90;;;;;;5044693;28;20093;-69
2021/12/17 14:41:28;;;;;;;16.38;11.02;;;5.70;99.90;;;;;;5048169;28;20082;-68
2021/12/17 14:44:00;;;;;;;15.20;10.98;;;5.70;99.90;;;;;;5049857;28;20029;-68
2021/12/17 14:46:30;;;;;;;;;;;5.70;99.90;;;;;;5050789;28;20031;-68
2021/12/17 14:57:21;;;;;;;15.98;10.23;;;5.60;99.90;;;;;;5048994;28;19919;-69
2021/12/17 15:06:01;;;;;;;16.23;11.90;;;5.60;99.90;;;;;;5050889;28;20090;-68
2021/12/17 15:08:27;;;;;;;16.02;11.25;;;5.50;99.90;;;;;;5044575;28;20725;-68
2021/12/17 15:10:53;;;;;;;19.05;11.88;;;5.50;99.90;;;;;;5047989;28;20025;-68
2021/12/17 15:13:19;;;;;;;19.83;12.57;;;5.40;99.90;;;;;;5055756;28;20044;-68
2021/12/17 15:15:45;;;;;;;18.70;12.23;;;5.30;99.90;;;;;;5039909;28;20068;-69
2021/12/17 15:18:19;;;;;;;18.10;12.25;;;5.30;99.90;;;;;;5046168;28;20033;-69
2021/12/17 15:20:47;;;;;;;15.10;10.82;;;5.30;99.90;;;;;;5047094;28;20497;-68
2021/12/17 15:23:14;;;;;;;14.55;10.25;;;5.30;99.90;;;;;;5049676;28;20130;-68
2021/12/17 15:25:40;;;;;;;16.73;10.30;;;5.20;99.90;;;;;;5049507;28;20036;-68
2021/12/17 15:28:12;;;;;;;17.45;11.07;;;5.10;99.90;;;;;;5048888;28;20109;-69
2021/12/17 15:30:44;;;;;;;15.25;10.68;;;5.10;99.90;;;;;;5050283;28;20028;-68
2021/12/17 15:33:11;;;;;;;11.77;8.25;;;5.00;99.90;;;;;;5049041;28;20082;-68
2021/12/17 15:35:37;;;;;;;17.52;11.23;;;5.00;99.90;;;;;;5042497;28;20025;-69
2021/12/17 15:38:07;;;;;;;16.25;10.88;;;5.00;99.90;;;;;;5045341;28;20025;-69
2021/12/17 15:40:35;;;;;;;16.25;11.30;;;5.00;99.90;;;;;;5041704;28;20037;-68
2021/12/17 15:43:02;;;;;;;17.85;11.25;;;5.00;99.90;;;;;;5048571;28;20035;-69
2021/12/17 15:45:32;;;;;;;16.77;11.40;;;5.00;99.90;;;;;;5044829;28;20125;-68
2021/12/17 15:47:58;;;;;;;16.48;11.35;;;5.00;99.90;;;;;;5031913;28;20021;-68
2021/12/17 15:50:26;;;;;;;15.98;11.10;;;5.00;99.90;;;;;;5055443;28;20499;-68
2021/12/17 15:52:52;;;;;;;17.42;11.65;;;4.90;99.90;;;;;;5059350;28;20024;-68
2021/12/17 15:55:29;;;;;;;18.10;11.98;;;4.90;99.90;;;;;;5047895;28;20025;-68
2021/12/17 15:57:57;;;;;;;18.63;12.02;;;4.90;99.90;;;;;;5039836;28;20553;-69
2021/12/17 16:00:26;;;;;;;16.50;11.43;;;4.90;99.90;;;;;;5048131;28;20539;-69
2021/12/17 16:02:52;;;;;;;18.00;11.45;;;4.80;99.90;;;;;;5048976;28;20037;-68
2021/12/17 16:05:20;;;;;;;17.70;11.68;;;4.80;99.90;;;;;;5048857;28;20024;-68
2021/12/17 16:07:48;;;;;;;18.65;11.98;;;4.90;99.90;;;;;;5047335;28;20029;-68
2021/12/17 16:23:04;;;;;;;19.05;12.88;;;4.90;99.90;;;;;;5049475;28;20043;-69
2021/12/17 16:25:30;;;;;;;18.50;12.13;;;4.80;99.90;;;;;;5037628;28;20033;-70
2021/12/17 16:27:55;;;;;;;17.42;11.75;;;4.80;99.90;;;;;;5050205;28;20021;-71
2021/12/17 16:30:23;;;;;;;17.33;12.07;;;4.80;99.90;;;;;;5048279;28;20112;-68